Time;durP1;ratioP1;P1;durP2;ratioP2;P2;SDS_P1;SDS_P2;PMS_P1;PMS_P2;Temp;Humidity;BMP_temperature;BMP_pressure;BME280_temperature;BME280_humidity;BME280_pressure;Samples;Min_cycle;Max_cycle;Signal;HPM_P1;HPM_P2
2023/07/31 00:00:52;;;;;;;5.40;1.75;;;17.70;99.90;;;;;;5064784;28;20058;-77
2023/07/31 00:03:46;;;;;;;5.82;1.50;;;17.70;99.90;;;;;;5083674;28;20079;-74
2023/07/31 00:06:39;;;;;;;5.70;1.60;;;17.60;99.90;;;;;;5073832;28;20068;-77
2023/07/31 00:13:17;;;;;;;8.45;1.90;;;17.70;99.90;;;;;;5075011;28;20771;-77
2023/07/31 00:16:25;;;;;;;8.75;1.65;;;17.60;99.90;;;;;;5078163;27;20058;-78
2023/07/31 00:19:20;;;;;;;7.60;1.60;;;17.60;99.90;;;;;;5130392;27;20438;-74
2023/07/31 00:22:19;;;;;;;10.15;1.90;;;17.50;99.90;;;;;;5115716;27;20043;-74
2023/07/31 00:25:17;;;;;;;7.13;1.65;;;17.50;99.90;;;;;;5080508;27;20069;-76
2023/07/31 00:27:59;;;;;;;6.57;1.58;;;17.40;99.90;;;;;;5107137;27;20059;-76
2023/07/31 00:30:43;;;;;;;5.20;1.45;;;16.50;99.90;;;;;;5103422;27;20044;-74
2023/07/31 00:33:22;;;;;;;3.63;1.38;;;17.30;99.90;;;;;;5092945;27;20059;-74
2023/07/31 00:36:17;;;;;;;5.82;1.58;;;17.30;99.90;;;;;;5104003;27;20188;-77
2023/07/31 00:39:10;;;;;;;6.30;1.58;;;17.20;99.90;;;;;;5068325;27;20098;-79
2023/07/31 00:42:31;;;;;;;5.85;1.80;;;17.20;99.90;;;;;;5097655;27;20153;-76
2023/07/31 00:45:28;;;;;;;7.15;1.63;;;17.20;99.90;;;;;;5089941;27;20077;-74
2023/07/31 00:48:32;;;;;;;4.75;1.60;;;17.10;99.90;;;;;;5104863;27;20066;-75
2023/07/31 00:51:19;;;;;;;4.75;1.60;;;17.10;99.90;;;;;;5089611;27;20077;-75
2023/07/31 00:54:06;;;;;;;6.00;1.50;;;17.10;99.90;;;;;;5076620;27;20067;-75
2023/07/31 00:56:57;;;;;;;6.88;1.48;;;17.10;99.90;;;;;;5089240;27;20066;-75
2023/07/31 00:59:52;;;;;;;6.07;1.75;;;17.10;99.90;;;;;;5120173;27;20050;-76
2023/07/31 01:02:50;;;;;;;5.43;1.45;;;17.10;99.90;;;;;;5110912;27;20054;-74
2023/07/31 01:06:09;;;;;;;5.38;1.48;;;17.10;99.90;;;;;;5109964;27;20067;-75
2023/07/31 01:09:16;;;;;;;6.22;1.50;;;17.00;99.90;;;;;;5110052;27;20508;-75
2023/07/31 01:12:34;;;;;;;6.68;1.60;;;17.00;99.90;;;;;;5090125;28;20470;-74
2023/07/31 01:19:07;;;;;;;4.47;1.17;;;17.00;99.90;;;;;;5077372;28;20059;-75
2023/07/31 01:22:10;;;;;;;5.90;1.33;;;17.00;99.90;;;;;;5069546;28;20052;-78
2023/07/31 01:25:44;;;;;;;4.75;1.33;;;16.90;99.90;;;;;;5061407;28;20209;-77
2023/07/31 01:28:41;;;;;;;4.55;1.30;;;16.90;99.90;;;;;;5070854;28;20048;-74
2023/07/31 01:32:05;;;;;;;3.72;1.60;;;16.90;99.90;;;;;;5068029;28;20048;-76
2023/07/31 01:34:59;;;;;;;7.55;1.42;;;16.90;99.90;;;;;;5063004;28;20063;-79
2023/07/31 01:37:52;;;;;;;5.25;1.63;;;16.90;99.90;;;;;;5091392;28;20545;-74
2023/07/31 01:40:44;;;;;;;5.93;1.50;;;16.90;99.90;;;;;;5088705;28;20116;-74
2023/07/31 01:43:47;;;;;;;5.03;1.50;;;16.90;99.90;;;;;;5054464;27;20066;-75
2023/07/31 01:46:50;;;;;;;5.78;1.73;;;16.90;99.90;;;;;;5109620;27;20385;-76
2023/07/31 01:49:38;;;;;;;5.68;1.52;;;16.90;99.90;;;;;;5108582;27;20050;-75
2023/07/31 01:52:24;;;;;;;5.35;1.40;;;17.10;99.90;;;;;;5078513;27;20055;-75
2023/07/31 01:55:07;;;;;;;6.70;1.50;;;16.80;99.90;;;;;;5127149;27;20043;-79
2023/07/31 01:57:53;;;;;;;3.88;1.45;;;16.90;99.90;;;;;;5110021;27;20045;-76
2023/07/31 02:00:28;;;;;;;4.28;1.45;;;16.80;99.90;;;;;;5108034;27;20058;-74
2023/07/31 02:03:20;;;;;;;4.20;1.30;;;17.70;99.90;;;;;;5098765;27;20039;-75
2023/07/31 02:06:35;;;;;;;5.97;1.65;;;16.80;99.90;;;;;;5123225;27;20047;-76
2023/07/31 02:09:47;;;;;;;7.72;1.77;;;16.80;99.90;;;;;;5092243;27;20429;-78
2023/07/31 02:12:41;;;;;;;5.85;1.30;;;16.80;99.90;;;;;;5075583;27;20125;-74
2023/07/31 02:15:37;;;;;;;7.38;1.60;;;16.80;99.90;;;;;;5084030;28;20063;-78
2023/07/31 02:18:29;;;;;;;5.22;1.48;;;16.70;99.90;;;;;;5067143;28;20052;-78
2023/07/31 02:21:32;;;;;;;3.42;1.40;;;16.70;99.90;;;;;;5072643;28;20040;-74
2023/07/31 02:24:33;;;;;;;3.22;1.45;;;16.60;99.90;;;;;;5070983;28;20121;-75
2023/07/31 02:27:27;;;;;;;;;;;16.60;99.90;;;;;;5084464;28;20241;-74
2023/07/31 02:30:14;;;;;;;7.13;1.50;;;16.60;99.90;;;;;;5070958;28;19923;-78
2023/07/31 02:33:32;;;;;;;5.60;1.85;;;16.50;99.90;;;;;;5070029;28;20067;-78
2023/07/31 02:36:23;;;;;;;3.03;1.05;;;16.60;99.90;;;;;;5070274;28;20044;-77
2023/07/31 02:39:18;;;;;;;6.57;1.17;;;15.20;99.90;;;;;;5087301;28;20522;-77
2023/07/31 02:42:10;;;;;;;6.68;1.40;;;16.60;99.90;;;;;;5071793;28;21864;-76
2023/07/31 02:45:24;;;;;;;3.85;1.20;;;16.60;99.90;;;;;;5079787;28;20059;-75
2023/07/31 02:48:29;;;;;;;5.38;1.45;;;16.50;99.90;;;;;;5105862;27;20105;-75
2023/07/31 02:51:35;;;;;;;3.83;0.77;;;16.50;99.90;;;;;;5126636;27;20035;-74
2023/07/31 02:54:34;;;;;;;2.55;0.80;;;16.40;99.90;;;;;;5124948;27;20077;-74
2023/07/31 02:57:43;;;;;;;2.30;0.90;;;16.30;99.90;;;;;;5105162;27;20051;-76
2023/07/31 03:00:35;;;;;;;2.88;1.10;;;16.40;99.90;;;;;;5095829;27;20096;-75
2023/07/31 03:03:42;;;;;;;4.35;1.52;;;16.40;99.90;;;;;;5096567;27;20049;-77
2023/07/31 03:06:47;;;;;;;;;;;16.40;99.90;;;;;;5092352;27;20047;-76
2023/07/31 03:09:44;;;;;;;4.53;1.55;;;16.50;99.90;;;;;;5085335;27;21191;-79
2023/07/31 03:12:35;;;;;;;5.38;1.42;;;16.50;99.90;;;;;;5112569;27;20103;-75
2023/07/31 03:15:36;;;;;;;2.80;1.35;;;16.50;99.90;;;;;;5090724;27;20123;-76
2023/07/31 03:18:22;;;;;;;5.25;1.80;;;16.50;99.90;;;;;;5106624;27;20104;-77
2023/07/31 03:21:15;;;;;;;10.50;2.85;;;16.40;99.90;;;;;;5092121;27;20158;-79
2023/07/31 03:24:07;;;;;;;10.68;2.70;;;16.50;99.90;;;;;;5105536;27;20058;-75
2023/07/31 03:27:15;;;;;;;7.70;2.67;;;16.50;99.90;;;;;;5112075;27;20042;-76
2023/07/31 03:30:18;;;;;;;6.75;2.58;;;16.60;99.90;;;;;;5123231;27;20046;-76
2023/07/31 03:33:28;;;;;;;8.82;2.80;;;16.60;99.90;;;;;;5125888;27;20050;-75
2023/07/31 03:36:43;;;;;;;8.90;3.22;;;16.70;99.90;;;;;;5109986;27;22144;-76
2023/07/31 03:39:36;;;;;;;12.25;4.22;;;16.70;99.90;;;;;;5122820;27;20058;-78
2023/07/31 03:42:38;;;;;;;10.82;4.53;;;16.80;99.90;;;;;;5091225;27;20402;-75
2023/07/31 03:45:59;;;;;;;10.38;4.40;;;16.90;99.90;;;;;;5123529;27;20083;-75
2023/07/31 03:49:04;;;;;;;12.85;4.90;;;16.90;99.90;;;;;;5026508;28;20372;-77
2023/07/31 03:51:53;;;;;;;16.92;5.07;;;16.90;99.90;;;;;;5009460;28;21663;-78
2023/07/31 03:55:05;;;;;;;11.13;4.28;;;16.90;99.90;;;;;;5024842;28;20141;-75
2023/07/31 03:58:10;;;;;;;10.95;4.05;;;17.00;99.90;;;;;;5004877;28;20144;-79
2023/07/31 04:01:25;;;;;;;13.23;4.40;;;16.80;99.90;;;;;;4989213;28;20053;-74
2023/07/31 04:04:28;;;;;;;13.18;4.10;;;16.80;99.90;;;;;;4990514;28;20957;-75
2023/07/31 04:07:36;;;;;;;16.02;4.72;;;16.90;99.90;;;;;;5100494;28;20055;-77
2023/07/31 04:10:28;;;;;;;12.20;4.30;;;16.90;99.90;;;;;;5071922;28;20528;-77
2023/07/31 04:13:27;;;;;;;14.85;4.43;;;17.00;99.90;;;;;;5069862;28;20599;-78
2023/07/31 04:16:32;;;;;;;15.55;4.35;;;16.90;99.90;;;;;;5099220;28;20047;-77
2023/07/31 04:19:36;;;;;;;18.50;4.90;;;16.30;99.90;;;;;;5070180;28;20205;-77
2023/07/31 04:22:27;;;;;;;18.33;4.50;;;17.00;99.90;;;;;;5072983;28;20509;-77
2023/07/31 04:25:16;;;;;;;16.67;4.00;;;16.90;99.90;;;;;;5082605;28;20050;-77
2023/07/31 04:28:17;;;;;;;16.70;4.32;;;16.90;99.90;;;;;;5088456;27;20565;-78
2023/07/31 04:30:59;;;;;;;26.15;5.70;;;16.90;99.90;;;;;;5094679;27;20043;-80
2023/07/31 04:33:53;;;;;;;21.80;5.82;;;16.80;99.90;;;;;;5092457;27;21637;-78
2023/07/31 04:36:47;;;;;;;23.10;6.25;;;16.80;99.90;;;;;;5096084;27;20051;-77
2023/07/31 04:39:35;;;;;;;18.67;6.07;;;16.90;99.90;;;;;;5107167;27;20063;-75
2023/07/31 04:45:54;;;;;;;25.55;7.30;;;17.00;99.90;;;;;;5109990;27;20039;-79
2023/07/31 04:48:59;;;;;;;26.83;8.20;;;17.00;99.90;;;;;;5091615;27;21699;-77
2023/07/31 04:51:54;;;;;;;22.08;7.68;;;17.00;99.90;;;;;;5126583;27;21590;-77
2023/07/31 04:54:46;;;;;;;24.35;6.22;;;17.10;99.90;;;;;;5128059;27;20677;-77
2023/07/31 04:57:38;;;;;;;17.23;5.75;;;18.10;99.90;;;;;;5099807;27;20528;-78
2023/07/31 05:00:47;;;;;;;13.30;4.25;;;17.00;99.90;;;;;;5110388;27;20050;-77
2023/07/31 05:03:33;;;;;;;15.27;4.60;;;17.00;99.90;;;;;;5091500;27;20138;-75
2023/07/31 05:06:20;;;;;;;15.35;5.07;;;17.00;99.90;;;;;;5108918;27;20035;-75
2023/07/31 05:09:20;;;;;;;15.32;4.90;;;17.00;99.90;;;;;;5099630;27;20191;-78
2023/07/31 05:12:12;;;;;;;13.20;4.75;;;17.00;99.90;;;;;;5127464;27;20031;-79
2023/07/31 05:15:10;;;;;;;13.43;4.20;;;17.00;99.90;;;;;;5124577;27;20061;-75
2023/07/31 05:17:51;;;;;;;12.55;4.40;;;17.00;99.90;;;;;;5120005;27;20157;-76
2023/07/31 05:20:48;;;;;;;12.57;3.88;;;17.00;99.90;;;;;;5108826;27;20642;-76
2023/07/31 05:24:17;;;;;;;14.73;4.28;;;16.70;99.90;;;;;;5127197;27;20047;-75
2023/07/31 05:26:54;;;;;;;11.55;3.78;;;17.00;99.90;;;;;;5107220;27;20051;-80
2023/07/31 05:29:22;;;;;;;16.02;3.42;;;17.10;99.90;;;;;;5104089;27;20051;-77
2023/07/31 05:31:51;;;;;;;10.77;4.03;;;17.10;99.90;;;;;;5075432;27;20113;-73
2023/07/31 05:35:02;;;;;;;10.40;3.70;;;17.20;99.90;;;;;;5112776;27;20137;-76
2023/07/31 05:37:36;;;;;;;10.30;3.65;;;17.20;99.90;;;;;;5056837;27;20536;-75
2023/07/31 05:40:56;;;;;;;9.98;3.83;;;17.20;99.90;;;;;;5110525;27;20101;-75
2023/07/31 05:44:25;;;;;;;13.60;3.30;;;17.30;99.90;;;;;;5094710;27;20046;-74
2023/07/31 05:47:27;;;;;;;12.98;3.35;;;17.30;99.90;;;;;;5089224;27;20043;-77
2023/07/31 05:50:30;;;;;;;7.18;2.85;;;17.30;99.90;;;;;;5129657;27;20046;-77
2023/07/31 05:53:25;;;;;;;9.13;3.28;;;17.30;99.90;;;;;;5130692;27;20038;-78
2023/07/31 05:56:18;;;;;;;8.15;3.25;;;17.30;99.90;;;;;;5129624;27;20442;-79
2023/07/31 05:58:44;;;;;;;13.68;4.03;;;17.20;99.90;;;;;;5103709;27;20126;-77
2023/07/31 06:01:43;;;;;;;9.18;3.60;;;17.30;99.90;;;;;;5055028;27;20485;-79
2023/07/31 06:04:31;;;;;;;9.40;3.58;;;17.30;99.90;;;;;;5114870;27;20507;-77
2023/07/31 06:07:35;;;;;;;7.90;3.08;;;17.30;99.90;;;;;;5113760;27;20054;-77
2023/07/31 06:10:29;;;;;;;12.35;3.33;;;17.30;99.90;;;;;;5129552;27;20100;-78
2023/07/31 06:13:31;;;;;;;11.07;3.53;;;17.30;99.90;;;;;;5128775;27;20443;-78
2023/07/31 06:16:36;;;;;;;9.32;3.08;;;17.40;99.90;;;;;;5110300;27;20059;-74
2023/07/31 06:19:17;;;;;;;12.27;3.13;;;17.40;99.90;;;;;;5107267;27;20047;-76
2023/07/31 06:22:25;;;;;;;7.10;2.05;;;17.40;99.90;;;;;;5128131;27;20537;-73
2023/07/31 06:24:59;;;;;;;6.10;1.92;;;17.40;99.90;;;;;;5106760;27;20108;-74
2023/07/31 06:27:34;;;;;;;5.45;1.77;;;17.30;99.90;;;;;;5117058;27;20067;-72
2023/07/31 06:30:10;;;;;;;7.45;1.77;;;17.20;99.90;;;;;;5107064;27;20498;-72
2023/07/31 06:35:39;;;;;;;5.43;1.83;;;17.30;99.90;;;;;;5110574;27;20050;-73
2023/07/31 06:38:37;;;;;;;4.30;1.67;;;17.30;99.90;;;;;;5089936;27;20127;-73
2023/07/31 06:41:04;;;;;;;4.78;1.90;;;17.30;99.90;;;;;;5109412;27;20055;-72
2023/07/31 06:43:39;;;;;;;3.67;1.50;;;17.40;99.90;;;;;;5090347;27;20043;-73
2023/07/31 06:46:10;;;;;;;8.02;2.10;;;17.40;99.90;;;;;;5106013;27;20761;-74
2023/07/31 06:48:52;;;;;;;5.28;1.67;;;17.40;99.90;;;;;;5102568;27;20046;-72
2023/07/31 06:51:24;;;;;;;;;;;17.40;99.90;;;;;;5104262;27;20594;-73
2023/07/31 06:53:59;;;;;;;5.55;1.70;;;17.50;99.90;;;;;;5096338;27;19940;-73
2023/07/31 06:56:29;;;;;;;3.85;1.63;;;17.50;99.90;;;;;;5085399;27;20058;-73
2023/07/31 06:59:01;;;;;;;3.60;1.70;;;17.50;99.90;;;;;;5077627;27;20084;-74
2023/07/31 07:01:31;;;;;;;5.45;1.85;;;17.60;99.90;;;;;;5044179;27;20043;-73
2023/07/31 07:04:02;;;;;;;5.45;1.55;;;17.60;99.90;;;;;;5088670;28;20078;-73
2023/07/31 07:06:35;;;;;;;4.30;1.40;;;17.60;99.90;;;;;;5079689;27;20087;-74
2023/07/31 07:09:19;;;;;;;4.28;1.42;;;17.60;99.90;;;;;;5062707;27;20035;-73
2023/07/31 07:11:51;;;;;;;1.90;1.10;;;17.60;99.90;;;;;;5088625;27;20089;-72
2023/07/31 07:14:53;;;;;;;7.43;1.50;;;17.60;99.90;;;;;;5104412;27;20043;-73
2023/07/31 07:18:20;;;;;;;4.45;1.50;;;17.70;99.90;;;;;;5035394;27;20131;-73
2023/07/31 07:20:58;;;;;;;2.95;1.10;;;17.70;99.90;;;;;;5087844;27;20042;-74
2023/07/31 07:23:44;;;;;;;3.15;1.10;;;17.70;99.90;;;;;;5100490;27;20062;-73
2023/07/31 07:26:19;;;;;;;5.85;1.25;;;17.80;99.90;;;;;;5096474;27;20173;-72
2023/07/31 07:29:10;;;;;;;5.43;1.52;;;17.80;99.90;;;;;;5044139;27;20050;-73
2023/07/31 07:31:46;;;;;;;4.57;1.58;;;17.90;99.90;;;;;;5093542;27;20047;-73
2023/07/31 07:34:27;;;;;;;4.97;1.10;;;18.00;99.90;;;;;;5108711;27;20088;-73
2023/07/31 07:37:01;;;;;;;6.00;1.13;;;18.00;99.90;;;;;;5107102;27;20082;-73
2023/07/31 07:39:41;;;;;;;6.40;1.20;;;18.00;99.90;;;;;;5105394;27;20047;-73
2023/07/31 07:42:10;;;;;;;5.93;1.38;;;18.10;99.90;;;;;;5106518;27;20051;-72
2023/07/31 07:44:52;;;;;;;7.25;1.30;;;18.10;99.90;;;;;;5080718;27;20963;-71
2023/07/31 07:47:21;;;;;;;6.65;1.50;;;18.30;99.90;;;;;;5089226;27;20043;-72
2023/07/31 07:50:02;;;;;;;3.25;1.25;;;18.30;99.90;;;;;;5093589;27;20050;-73
2023/07/31 07:52:28;;;;;;;;;;;18.40;99.90;;;;;;5083333;27;20082;-72
2023/07/31 07:55:01;;;;;;;7.10;1.55;;;18.40;99.90;;;;;;5093950;27;19968;-73
2023/07/31 07:57:38;;;;;;;6.30;1.40;;;18.50;99.90;;;;;;5080057;27;20035;-73
2023/07/31 08:00:13;;;;;;;4.40;1.20;;;18.60;99.90;;;;;;5111728;27;20075;-71
2023/07/31 08:02:39;;;;;;;4.03;1.20;;;18.70;99.90;;;;;;5077201;27;20441;-72
2023/07/31 08:05:05;;;;;;;5.55;1.30;;;18.70;99.90;;;;;;5091098;27;20051;-72
2023/07/31 08:07:32;;;;;;;4.88;1.30;;;18.80;99.90;;;;;;5107076;27;20397;-71
2023/07/31 08:09:58;;;;;;;2.35;0.98;;;18.80;99.90;;;;;;5105967;27;20074;-73
2023/07/31 08:12:36;;;;;;;5.40;1.20;;;18.90;99.90;;;;;;5109299;27;20169;-75
2023/07/31 08:19:07;;;;;;;4.68;1.48;;;18.80;99.90;;;;;;5133370;27;20051;-72
2023/07/31 08:22:18;;;;;;;3.40;1.10;;;18.20;99.90;;;;;;5124442;27;20049;-73
2023/07/31 08:28:36;;;;;;;4.13;1.02;;;18.40;99.90;;;;;;5132492;27;20043;-72
2023/07/31 08:34:41;;;;;;;3.50;1.10;;;18.60;99.90;;;;;;5114740;27;20051;-72
2023/07/31 08:37:08;;;;;;;4.57;1.25;;;18.70;99.90;;;;;;5103879;27;20067;-71
2023/07/31 08:39:47;;;;;;;5.63;1.20;;;18.60;99.90;;;;;;5131127;27;20096;-72
2023/07/31 08:42:25;;;;;;;4.30;1.10;;;18.60;99.90;;;;;;5050809;27;20043;-72
2023/07/31 08:45:31;;;;;;;4.55;1.00;;;18.70;99.90;;;;;;5107882;27;20047;-74
2023/07/31 08:48:12;;;;;;;2.45;0.88;;;18.70;99.90;;;;;;5129855;27;20043;-73
2023/07/31 08:50:52;;;;;;;2.67;0.95;;;18.70;99.90;;;;;;5107178;27;20470;-72
2023/07/31 08:53:49;;;;;;;3.28;1.08;;;18.70;99.90;;;;;;5124964;27;20454;-73
2023/07/31 08:56:59;;;;;;;4.30;1.10;;;18.70;99.90;;;;;;5111303;27;20042;-72
2023/07/31 09:00:24;;;;;;;3.85;1.00;;;18.70;99.90;;;;;;5116092;27;20042;-74
2023/07/31 09:03:21;;;;;;;6.35;1.33;;;18.70;99.90;;;;;;5129991;27;20056;-73
2023/07/31 09:06:20;;;;;;;4.88;2.05;;;18.60;99.90;;;;;;5102592;27;20081;-73
2023/07/31 09:09:21;;;;;;;4.95;1.35;;;18.60;99.90;;;;;;5113203;27;20109;-73
2023/07/31 09:12:23;;;;;;;7.05;1.38;;;18.60;99.90;;;;;;5057560;28;20418;-76
2023/07/31 09:14:55;;;;;;;5.95;1.48;;;18.70;99.90;;;;;;5026974;28;20237;-74
2023/07/31 09:17:34;;;;;;;5.78;1.33;;;18.70;99.90;;;;;;5053702;28;20061;-74
2023/07/31 09:20:29;;;;;;;5.43;1.60;;;18.70;99.90;;;;;;5058022;28;20103;-73
2023/07/31 09:22:58;;;;;;;7.43;1.83;;;18.10;99.90;;;;;;5066959;28;20113;-78
2023/07/31 09:26:10;;;;;;;10.48;1.58;;;18.80;99.90;;;;;;5054067;28;20064;-74
2023/07/31 09:29:34;;;;;;;8.90;2.05;;;18.80;99.90;;;;;;5067946;28;20302;-74
2023/07/31 09:32:47;;;;;;;5.55;1.80;;;18.70;99.90;;;;;;5051845;28;20214;-75
2023/07/31 09:35:32;;;;;;;7.38;1.90;;;18.80;99.90;;;;;;5052629;28;20403;-74
2023/07/31 09:38:42;;;;;;;8.52;2.15;;;18.80;99.90;;;;;;5016293;28;20055;-74
2023/07/31 09:41:46;;;;;;;5.43;1.52;;;18.90;99.90;;;;;;5055617;28;20063;-75
2023/07/31 09:44:47;;;;;;;5.93;2.10;;;19.10;99.90;;;;;;5120454;27;20059;-76
2023/07/31 09:47:38;;;;;;;9.30;1.80;;;19.30;99.90;;;;;;5014261;27;20140;-76
2023/07/31 09:50:34;;;;;;;7.43;2.25;;;19.50;99.90;;;;;;5124587;27;20442;-74
2023/07/31 09:53:50;;;;;;;7.07;1.92;;;19.70;99.90;;;;;;5076659;28;20059;-74
2023/07/31 09:56:23;;;;;;;5.72;1.58;;;19.80;99.90;;;;;;5079989;28;20097;-75
2023/07/31 09:59:25;;;;;;;6.47;1.45;;;19.90;99.90;;;;;;5074063;28;20525;-74
2023/07/31 10:02:13;;;;;;;3.72;1.30;;;19.90;99.90;;;;;;5085748;28;20093;-77
2023/07/31 10:12:03;;;;;;;6.25;1.48;;;19.40;99.90;;;;;;5083117;28;20080;-75
2023/07/31 10:15:11;;;;;;;5.90;1.38;;;19.30;99.90;;;;;;5085879;28;20058;-75
2023/07/31 10:18:39;;;;;;;6.82;1.50;;;19.10;99.90;;;;;;5072663;28;20094;-77
2023/07/31 10:21:48;;;;;;;3.65;1.40;;;19.10;99.90;;;;;;5085774;28;20048;-78
2023/07/31 10:27:32;;;;;;;6.43;1.80;;;19.10;99.90;;;;;;5108909;27;20058;-77
2023/07/31 10:33:52;;;;;;;11.32;2.00;;;18.90;99.90;;;;;;5084698;28;20074;-76
2023/07/31 10:36:40;;;;;;;8.38;2.08;;;19.00;99.90;;;;;;5050451;28;20047;-75
2023/07/31 10:40:03;;;;;;;9.00;2.30;;;19.00;99.90;;;;;;5076678;28;20055;-74
2023/07/31 10:42:55;;;;;;;9.52;2.38;;;17.80;99.90;;;;;;5076049;28;20651;-74
2023/07/31 10:45:38;;;;;;;6.05;2.20;;;19.10;99.90;;;;;;5053730;28;20050;-74
2023/07/31 10:48:13;;;;;;;6.22;1.70;;;19.20;99.90;;;;;;5073686;28;20070;-72
2023/07/31 10:50:48;;;;;;;4.35;1.65;;;19.30;99.90;;;;;;5048438;28;20052;-72
2023/07/31 10:53:25;;;;;;;6.07;2.00;;;19.50;99.90;;;;;;5067453;28;20071;-72
2023/07/31 10:55:51;;;;;;;5.80;1.67;;;19.50;99.90;;;;;;5074951;28;20871;-73
2023/07/31 10:58:23;;;;;;;5.72;1.60;;;19.50;99.90;;;;;;5070079;28;20131;-72
2023/07/31 11:00:48;;;;;;;7.70;1.70;;;19.60;99.90;;;;;;5060428;28;20074;-72
2023/07/31 11:03:16;;;;;;;3.08;1.17;;;19.60;99.90;;;;;;5072987;28;20055;-72
2023/07/31 11:05:55;;;;;;;4.57;1.30;;;19.50;99.90;;;;;;5091637;27;20556;-71
2023/07/31 11:08:23;;;;;;;3.83;1.73;;;19.40;99.90;;;;;;5113400;27;20536;-72
2023/07/31 11:11:06;;;;;;;2.78;1.10;;;19.50;99.90;;;;;;5112548;27;20042;-72
2023/07/31 11:13:52;;;;;;;5.47;1.42;;;19.50;99.90;;;;;;5094050;27;20047;-72
2023/07/31 11:16:20;;;;;;;3.75;1.35;;;19.50;99.90;;;;;;5112295;27;20053;-72
2023/07/31 11:18:48;;;;;;;8.13;1.70;;;19.50;99.90;;;;;;5111512;27;20165;-72
2023/07/31 11:21:16;;;;;;;6.20;1.65;;;19.50;99.90;;;;;;5113265;27;20162;-72
2023/07/31 11:23:45;;;;;;;10.00;2.05;;;19.70;99.90;;;;;;5117308;27;20094;-72
2023/07/31 11:26:12;;;;;;;7.28;1.98;;;19.80;99.90;;;;;;5111432;27;20082;-72
2023/07/31 11:28:38;;;;;;;4.72;1.80;;;20.00;99.90;;;;;;5116181;27;21534;-72
2023/07/31 11:31:05;;;;;;;7.10;2.00;;;19.90;99.90;;;;;;5096817;27;20382;-71
2023/07/31 11:33:31;;;;;;;10.23;2.60;;;19.90;99.90;;;;;;5088341;27;20038;-72
2023/07/31 11:35:57;;;;;;;8.60;2.00;;;19.90;99.90;;;;;;5108059;27;20412;-72
2023/07/31 11:38:26;;;;;;;7.75;2.08;;;19.90;99.90;;;;;;5110933;27;20469;-72
2023/07/31 11:40:54;;;;;;;9.52;2.30;;;20.00;99.90;;;;;;5110826;27;20077;-72
2023/07/31 11:43:21;;;;;;;9.75;2.28;;;20.00;99.90;;;;;;5112739;27;20051;-72
2023/07/31 11:45:57;;;;;;;7.65;1.90;;;20.10;99.90;;;;;;5108962;27;20054;-72
2023/07/31 11:48:29;;;;;;;10.75;2.50;;;20.10;99.90;;;;;;5094045;27;21405;-71
2023/07/31 11:50:58;;;;;;;7.60;2.40;;;20.10;99.90;;;;;;5131876;27;20287;-72
2023/07/31 11:53:55;;;;;;;10.77;2.42;;;20.00;99.90;;;;;;5113949;27;20070;-72
2023/07/31 11:56:23;;;;;;;8.60;2.28;;;20.00;99.90;;;;;;5115611;27;20162;-71
2023/07/31 11:58:58;;;;;;;10.75;2.85;;;20.10;99.90;;;;;;5122487;27;20038;-71
2023/07/31 12:01:25;;;;;;;7.65;2.58;;;20.00;99.90;;;;;;5117091;27;20045;-71
2023/07/31 12:03:51;;;;;;;8.30;2.25;;;20.00;99.90;;;;;;5080697;27;20038;-71
2023/07/31 12:06:17;;;;;;;10.55;2.70;;;19.30;99.90;;;;;;5081480;27;20088;-71
2023/07/31 12:08:43;;;;;;;14.40;3.05;;;20.00;99.90;;;;;;5097076;27;20680;-71
2023/07/31 12:11:09;;;;;;;11.10;2.60;;;20.00;99.90;;;;;;5112880;27;20035;-72
2023/07/31 12:13:35;;;;;;;14.68;3.15;;;19.90;99.90;;;;;;5110415;27;20039;-72
2023/07/31 12:16:03;;;;;;;13.32;3.22;;;20.00;99.90;;;;;;5101854;27;20062;-72
2023/07/31 12:18:33;;;;;;;11.95;2.63;;;19.90;99.90;;;;;;5101522;27;20042;-71
2023/07/31 12:21:01;;;;;;;12.77;3.13;;;20.00;99.90;;;;;;5113553;27;20043;-71
2023/07/31 12:23:29;;;;;;;13.15;2.70;;;19.90;99.90;;;;;;5132868;27;20389;-71
2023/07/31 12:26:06;;;;;;;13.02;2.80;;;19.80;99.90;;;;;;5115311;27;20894;-72
2023/07/31 12:28:42;;;;;;;7.85;2.20;;;19.70;99.90;;;;;;5113603;27;20050;-72
2023/07/31 12:31:11;;;;;;;10.20;2.70;;;19.70;99.90;;;;;;5114220;27;20493;-72
2023/07/31 12:33:38;;;;;;;10.20;2.70;;;19.80;99.90;;;;;;5112442;27;20043;-72
2023/07/31 12:36:11;;;;;;;11.68;3.55;;;19.70;99.90;;;;;;5112602;27;20078;-72
2023/07/31 12:38:36;;;;;;;11.35;2.72;;;19.80;99.90;;;;;;5104119;27;20043;-72
2023/07/31 12:41:02;;;;;;;11.65;2.65;;;19.80;99.90;;;;;;5080170;27;20995;-72
2023/07/31 12:43:28;;;;;;;7.72;2.22;;;19.90;99.90;;;;;;5113041;27;20439;-71
2023/07/31 12:45:57;;;;;;;10.20;2.80;;;20.00;99.90;;;;;;5090671;27;20462;-72
2023/07/31 12:48:22;;;;;;;8.93;3.22;;;20.00;99.90;;;;;;5107222;27;20082;-72
2023/07/31 12:50:48;;;;;;;9.85;2.92;;;20.10;99.90;;;;;;5110917;27;20122;-72
2023/07/31 12:53:15;;;;;;;10.60;2.20;;;20.20;99.90;;;;;;5096495;27;20047;-72
2023/07/31 12:55:41;;;;;;;11.50;2.55;;;20.30;99.90;;;;;;5094730;27;20053;-72
2023/07/31 12:59:24;;;;;;;5.20;2.28;;;20.30;99.90;;;;;;5187043;27;20180;-73
2023/07/31 13:01:50;;;;;;;6.65;2.65;;;20.60;99.90;;;;;;5135678;27;20413;-74
2023/07/31 13:04:15;;;;;;;8.00;2.28;;;20.30;99.90;;;;;;5130277;27;20042;-73
2023/07/31 13:06:42;;;;;;;10.60;2.75;;;20.30;99.90;;;;;;5043237;27;2308242;-72
2023/07/31 13:09:09;;;;;;;9.95;2.50;;;20.40;99.90;;;;;;5088948;27;20049;-71
2023/07/31 13:11:34;;;;;;;12.68;2.97;;;20.40;99.90;;;;;;5092360;27;20057;-71
2023/07/31 13:14:00;;;;;;;8.45;2.63;;;20.40;99.90;;;;;;5126402;27;20058;-72
2023/07/31 13:16:26;;;;;;;8.07;2.25;;;20.50;99.90;;;;;;5082535;27;20092;-72
2023/07/31 13:18:53;;;;;;;7.53;3.00;;;20.50;99.90;;;;;;5110270;27;20039;-72
2023/07/31 13:21:19;;;;;;;13.05;2.97;;;20.50;99.90;;;;;;5108192;27;20153;-71
2023/07/31 13:23:44;;;;;;;9.73;2.72;;;20.50;99.90;;;;;;5096709;27;20066;-72
2023/07/31 13:26:10;;;;;;;8.40;2.40;;;20.40;99.90;;;;;;5109146;27;20544;-72
2023/07/31 13:28:36;;;;;;;10.10;3.55;;;20.40;99.90;;;;;;5115386;27;20100;-73
2023/07/31 13:31:01;;;;;;;14.00;3.10;;;20.30;99.90;;;;;;5109280;27;20135;-72
2023/07/31 13:33:27;;;;;;;8.68;2.88;;;20.30;99.90;;;;;;5109116;27;20118;-74
2023/07/31 13:35:53;;;;;;;8.88;3.42;;;20.40;99.90;;;;;;5102271;27;20083;-72
2023/07/31 13:38:19;;;;;;;10.43;3.13;;;20.40;99.90;;;;;;5107869;27;20073;-72
2023/07/31 13:40:44;;;;;;;10.15;3.25;;;20.40;99.90;;;;;;5093937;27;20047;-72
2023/07/31 13:43:10;;;;;;;15.00;3.58;;;20.40;99.90;;;;;;5125016;27;20057;-73
2023/07/31 13:45:36;;;;;;;11.73;3.50;;;20.40;99.90;;;;;;5100567;27;20397;-72
2023/07/31 13:48:02;;;;;;;12.50;2.95;;;20.40;99.90;;;;;;5108972;27;20046;-72
2023/07/31 13:50:27;;;;;;;9.93;3.35;;;20.40;99.90;;;;;;5117823;27;20165;-72
2023/07/31 13:52:53;;;;;;;9.25;2.95;;;20.30;99.90;;;;;;5111247;27;20375;-72
2023/07/31 13:55:19;;;;;;;10.30;2.90;;;20.30;99.90;;;;;;5108316;27;20498;-72
2023/07/31 13:57:45;;;;;;;11.75;3.35;;;20.20;99.90;;;;;;5099303;27;20104;-71
2023/07/31 14:00:14;;;;;;;8.05;3.03;;;20.20;99.90;;;;;;5109095;27;20084;-72
2023/07/31 14:02:39;;;;;;;10.05;2.70;;;20.20;99.90;;;;;;5093367;27;20035;-72
2023/07/31 14:05:05;;;;;;;14.15;3.17;;;20.10;99.90;;;;;;5115872;27;20119;-72
2023/07/31 14:07:32;;;;;;;12.70;2.63;;;20.10;99.90;;;;;;5091975;27;20050;-73
2023/07/31 14:09:58;;;;;;;10.70;2.85;;;20.00;99.90;;;;;;5087954;27;20051;-73
2023/07/31 14:12:24;;;;;;;13.13;3.10;;;20.00;99.90;;;;;;5077331;27;20393;-71
2023/07/31 14:14:49;;;;;;;11.88;2.60;;;20.00;99.90;;;;;;5095411;27;20536;-72
2023/07/31 14:17:16;;;;;;;10.90;2.70;;;20.00;99.90;;;;;;5085398;27;20108;-75
2023/07/31 14:19:42;;;;;;;13.30;2.95;;;20.00;99.90;;;;;;5091503;27;20044;-71
2023/07/31 14:22:08;;;;;;;12.23;2.85;;;19.90;99.90;;;;;;5073961;27;20047;-73
2023/07/31 14:24:37;;;;;;;15.18;3.30;;;19.90;99.90;;;;;;5110742;27;20100;-72
2023/07/31 14:27:03;;;;;;;9.98;2.72;;;19.80;99.90;;;;;;5090252;27;20036;-73
2023/07/31 14:29:30;;;;;;;11.23;2.70;;;19.80;99.90;;;;;;5081155;27;20064;-73
2023/07/31 14:31:55;;;;;;;9.35;2.78;;;19.80;99.90;;;;;;5080655;27;20031;-73
2023/07/31 14:34:21;;;;;;;13.25;3.25;;;19.80;99.90;;;;;;5108501;27;20100;-73
2023/07/31 14:36:47;;;;;;;10.70;2.80;;;19.80;99.90;;;;;;5083812;27;20158;-72
2023/07/31 14:39:12;;;;;;;8.38;2.58;;;19.80;99.90;;;;;;5111711;27;20158;-72
2023/07/31 14:41:38;;;;;;;11.38;2.65;;;19.80;99.90;;;;;;5108903;27;20092;-73
2023/07/31 14:44:04;;;;;;;10.20;2.67;;;19.80;99.90;;;;;;5092582;27;20075;-73
2023/07/31 14:46:30;;;;;;;11.20;2.88;;;19.80;99.90;;;;;;5090698;27;20051;-73
2023/07/31 14:48:55;;;;;;;10.60;3.05;;;19.70;99.90;;;;;;5080911;27;20046;-75
2023/07/31 14:51:21;;;;;;;11.30;3.03;;;19.70;99.90;;;;;;5093832;27;20051;-73
2023/07/31 14:53:47;;;;;;;11.45;2.63;;;19.70;99.90;;;;;;5096270;27;20043;-72
2023/07/31 14:56:13;;;;;;;10.98;2.85;;;19.70;99.90;;;;;;5069295;27;20103;-73